Time;durP1;ratioP1;P1;durP2;ratioP2;P2;SDS_P1;SDS_P2;PMS_P1;PMS_P2;Temp;Humidity;BMP_temperature;BMP_pressure;BME280_temperature;BME280_humidity;BME280_pressure;Samples;Min_cycle;Max_cycle;Signal;HPM_P1;HPM_P2
2023/12/24 00:01:04;;;;;;;14.90;14.40;;;23.70;53.60;;;;;;4972306;28;20474;-65
2023/12/24 00:03:30;;;;;;;14.67;14.20;;;23.60;53.50;;;;;;4972346;28;20487;-65
2023/12/24 00:05:57;;;;;;;15.13;14.63;;;23.70;53.50;;;;;;4975171;28;20486;-65
2023/12/24 00:08:28;;;;;;;16.70;16.10;;;23.60;53.40;;;;;;4975259;28;20486;-65
2023/12/24 00:10:55;;;;;;;14.70;14.13;;;23.60;53.40;;;;;;4975922;28;20975;-65
2023/12/24 00:13:22;;;;;;;16.40;15.80;;;23.60;53.40;;;;;;4974654;28;20451;-65
2023/12/24 00:15:49;;;;;;;15.30;14.50;;;23.60;53.40;;;;;;4975197;28;20503;-65
2023/12/24 00:18:16;;;;;;;14.73;14.23;;;23.60;53.30;;;;;;4975924;28;20479;-65
2023/12/24 00:20:43;;;;;;;15.20;14.70;;;23.60;53.30;;;;;;4975544;28;20547;-65
2023/12/24 00:23:10;;;;;;;14.57;14.07;;;23.60;53.20;;;;;;4975777;28;20478;-65
2023/12/24 00:25:40;;;;;;;15.03;14.53;;;23.60;53.20;;;;;;4975538;28;20479;-65
2023/12/24 00:28:07;;;;;;;14.77;14.27;;;23.60;53.30;;;;;;4970303;28;20887;-64
2023/12/24 00:30:34;;;;;;;14.23;13.53;;;23.50;53.30;;;;;;4975437;28;20503;-64
2023/12/24 00:33:01;;;;;;;15.40;14.90;;;23.60;53.30;;;;;;4975591;28;20448;-65
2023/12/24 00:35:31;;;;;;;15.23;14.73;;;23.60;53.40;;;;;;4975316;28;20570;-65
2023/12/24 00:37:58;;;;;;;15.40;14.90;;;23.50;53.30;;;;;;4974761;28;20440;-65
2023/12/24 00:40:25;;;;;;;14.30;13.90;;;23.60;53.40;;;;;;4975300;28;20550;-65
2023/12/24 00:42:54;;;;;;;14.70;14.30;;;23.50;53.30;;;;;;4975360;28;20857;-65
2023/12/24 00:45:21;;;;;;;14.63;14.17;;;23.50;53.30;;;;;;4974832;28;20475;-65
2023/12/24 00:47:48;;;;;;;15.03;14.60;;;23.50;53.30;;;;;;4975189;28;20467;-65
2023/12/24 00:50:15;;;;;;;13.93;13.50;;;23.50;53.20;;;;;;4975293;28;20466;-65
2023/12/24 00:52:41;;;;;;;14.30;13.90;;;23.50;53.20;;;;;;4975196;28;20479;-65
2023/12/24 00:55:09;;;;;;;14.93;14.43;;;23.50;53.10;;;;;;4974536;28;20491;-65
2023/12/24 00:57:37;;;;;;;15.00;14.50;;;23.50;53.20;;;;;;4974944;28;20440;-65
2023/12/24 01:00:06;;;;;;;14.60;14.10;;;23.50;53.10;;;;;;4975018;28;20468;-64
2023/12/24 01:02:33;;;;;;;14.70;14.23;;;23.50;53.10;;;;;;4975070;28;20502;-65
2023/12/24 01:05:00;;;;;;;14.53;14.13;;;23.40;53.10;;;;;;4974413;28;20975;-65
2023/12/24 01:07:27;;;;;;;14.30;13.90;;;23.50;53.10;;;;;;4974834;28;20471;-65
2023/12/24 01:09:54;;;;;;;15.07;14.57;;;23.40;53.10;;;;;;4974913;28;20503;-64
2023/12/24 01:12:21;;;;;;;14.53;14.03;;;23.40;53.10;;;;;;4974968;28;20472;-65
2023/12/24 01:14:48;;;;;;;14.13;13.73;;;23.40;53.00;;;;;;4974013;28;20867;-64
2023/12/24 01:17:16;;;;;;;14.60;14.10;;;23.50;53.10;;;;;;4973616;28;20920;-64
2023/12/24 01:19:44;;;;;;;14.50;14.00;;;23.50;53.10;;;;;;4974686;28;20498;-65
2023/12/24 01:22:11;;;;;;;14.90;14.40;;;23.40;52.90;;;;;;4974769;28;20444;-65
2023/12/24 01:24:38;;;;;;;14.13;13.73;;;23.40;53.00;;;;;;4974035;28;20502;-65
2023/12/24 01:27:05;;;;;;;14.57;14.07;;;23.40;52.90;;;;;;4974600;28;20468;-64
2023/12/24 01:29:32;;;;;;;14.13;13.73;;;23.40;52.90;;;;;;4974561;28;20949;-64
2023/12/24 01:31:59;;;;;;;15.73;15.23;;;23.40;52.90;;;;;;4974544;28;20480;-64
2023/12/24 01:34:27;;;;;;;14.03;13.63;;;23.40;52.90;;;;;;4967332;28;20480;-64
2023/12/24 01:36:54;;;;;;;14.20;13.90;;;23.40;53.00;;;;;;4966672;28;20475;-64
2023/12/24 01:39:21;;;;;;;13.77;13.47;;;23.40;53.00;;;;;;4974585;28;20897;-64
2023/12/24 01:41:48;;;;;;;13.73;13.33;;;23.40;53.00;;;;;;4974309;28;20876;-64
2023/12/24 01:44:15;;;;;;;14.37;13.97;;;23.40;53.10;;;;;;4973712;28;20471;-64
2023/12/24 01:46:43;;;;;;;14.40;14.00;;;23.40;53.10;;;;;;4974153;28;21127;-64
2023/12/24 01:49:13;;;;;;;14.27;13.97;;;23.40;53.10;;;;;;4974338;28;20491;-64
2023/12/24 01:51:41;;;;;;;14.20;13.80;;;23.30;53.00;;;;;;4974062;28;20478;-64
2023/12/24 01:54:08;;;;;;;13.30;13.00;;;23.30;53.00;;;;;;4973462;28;20452;-64
2023/12/24 01:56:36;;;;;;;14.17;13.67;;;23.30;53.00;;;;;;4973764;28;20511;-64
2023/12/24 01:59:03;;;;;;;13.70;13.30;;;23.30;53.00;;;;;;4974111;28;20890;-64
2023/12/24 02:01:30;;;;;;;14.83;14.40;;;23.30;53.00;;;;;;4973813;28;20475;-65
2023/12/24 02:03:57;;;;;;;14.17;13.53;;;23.30;52.90;;;;;;4967926;28;20479;-64
2023/12/24 02:06:26;;;;;;;13.37;13.07;;;23.30;52.90;;;;;;4973894;28;20857;-64
2023/12/24 02:08:56;;;;;;;13.53;13.13;;;23.30;53.00;;;;;;4973937;28;20495;-65
2023/12/24 02:11:23;;;;;;;14.20;13.80;;;23.30;53.10;;;;;;4973970;28;20471;-64
2023/12/24 02:13:50;;;;;;;13.20;12.90;;;23.30;53.10;;;;;;4973189;28;20479;-64
2023/12/24 02:16:20;;;;;;;13.43;13.13;;;23.30;53.10;;;;;;4973695;28;20515;-64
2023/12/24 02:18:48;;;;;;;13.27;12.97;;;23.30;53.10;;;;;;4973785;28;20502;-64
2023/12/24 02:21:16;;;;;;;14.73;14.27;;;23.30;53.10;;;;;;4972894;28;20919;-64
2023/12/24 02:23:43;;;;;;;14.57;14.17;;;23.30;53.10;;;;;;4973642;28;20472;-64
2023/12/24 02:26:20;;;;;;;14.53;13.93;;;23.30;53.10;;;;;;4973548;28;20498;-65
2023/12/24 02:28:50;;;;;;;14.13;13.53;;;23.30;53.10;;;;;;4973226;28;20475;-65
2023/12/24 02:31:21;;;;;;;12.80;12.50;;;23.30;53.10;;;;;;4972041;28;20499;-64
2023/12/24 02:33:51;;;;;;;13.40;13.10;;;23.30;53.10;;;;;;4972620;28;20880;-64
2023/12/24 02:36:21;;;;;;;15.23;14.83;;;23.30;53.10;;;;;;4973523;28;20582;-65
2023/12/24 02:38:47;;;;;;;13.77;13.40;;;23.20;53.00;;;;;;4973218;28;20483;-65
2023/12/24 02:41:14;;;;;;;14.63;14.23;;;23.20;53.00;;;;;;4972027;28;20491;-65
2023/12/24 02:43:41;;;;;;;13.50;13.10;;;23.20;53.00;;;;;;4971018;28;20486;-64
2023/12/24 02:46:08;;;;;;;13.63;13.13;;;23.20;53.00;;;;;;4973555;28;20959;-64
2023/12/24 02:48:35;;;;;;;14.80;14.40;;;23.20;53.10;;;;;;4973181;28;20479;-64
2023/12/24 02:51:03;;;;;;;15.77;15.37;;;23.20;53.10;;;;;;4973044;28;20502;-64
2023/12/24 02:53:32;;;;;;;16.63;16.23;;;23.20;53.10;;;;;;4972707;28;20487;-64
2023/12/24 02:55:59;;;;;;;14.67;14.20;;;23.20;53.10;;;;;;4973060;28;20530;-64
2023/12/24 02:58:28;;;;;;;14.83;14.33;;;23.20;53.10;;;;;;4973061;28;20452;-64
2023/12/24 03:00:55;;;;;;;15.20;14.80;;;23.20;53.10;;;;;;4972818;28;20518;-64
2023/12/24 03:03:21;;;;;;;15.43;15.03;;;23.20;53.10;;;;;;4970793;28;20468;-64
2023/12/24 03:05:48;;;;;;;16.83;16.43;;;23.20;53.10;;;;;;4973036;28;20487;-64
2023/12/24 03:08:15;;;;;;;14.97;14.57;;;23.20;53.10;;;;;;4972824;28;20476;-64
2023/12/24 03:10:43;;;;;;;15.80;15.40;;;23.20;53.10;;;;;;4972737;28;20987;-64
2023/12/24 03:13:10;;;;;;;15.77;15.27;;;23.20;53.10;;;;;;4970726;28;20487;-64
2023/12/24 03:15:37;;;;;;;15.77;15.37;;;23.20;53.10;;;;;;4972801;28;20479;-64
2023/12/24 03:18:05;;;;;;;16.30;15.83;;;23.20;53.10;;;;;;4972765;28;20507;-64
2023/12/24 03:20:32;;;;;;;15.77;15.37;;;23.20;53.10;;;;;;4972435;28;20499;-64
2023/12/24 03:22:58;;;;;;;15.80;15.40;;;23.20;53.10;;;;;;4972174;28;20478;-64
2023/12/24 03:25:26;;;;;;;16.70;16.10;;;23.20;53.20;;;;;;4972856;28;20472;-65
2023/12/24 03:27:54;;;;;;;15.83;15.43;;;23.20;53.20;;;;;;4972628;28;20490;-64
2023/12/24 03:30:21;;;;;;;14.80;14.40;;;23.20;53.10;;;;;;4971972;28;20503;-64
2023/12/24 03:32:47;;;;;;;13.80;13.50;;;23.20;53.10;;;;;;4972606;28;20483;-64
2023/12/24 03:35:14;;;;;;;13.57;13.27;;;23.20;53.10;;;;;;4972650;28;20510;-64
2023/12/24 03:37:41;;;;;;;14.30;14.00;;;23.20;53.10;;;;;;4972631;28;20503;-64
2023/12/24 03:40:09;;;;;;;14.40;14.10;;;23.20;53.10;;;;;;4974651;28;20510;-64
2023/12/24 03:42:36;;;;;;;13.10;12.80;;;23.20;53.10;;;;;;4976576;28;20483;-64
2023/12/24 03:45:05;;;;;;;14.00;13.57;;;23.10;53.00;;;;;;4976552;28;20479;-64
2023/12/24 03:47:32;;;;;;;14.80;14.40;;;23.10;53.00;;;;;;4976361;28;20479;-64
2023/12/24 03:49:59;;;;;;;14.93;14.53;;;23.10;53.00;;;;;;4975681;28;20508;-64
2023/12/24 03:52:26;;;;;;;13.43;13.13;;;23.10;53.00;;;;;;4976433;28;20483;-64
2023/12/24 03:54:53;;;;;;;13.70;13.40;;;23.10;53.00;;;;;;4976183;28;20475;-64
2023/12/24 03:57:19;;;;;;;13.83;13.40;;;23.10;53.00;;;;;;4976073;28;20507;-64
2023/12/24 03:59:46;;;;;;;13.70;13.40;;;23.10;53.00;;;;;;4975857;28;20495;-64
2023/12/24 04:02:15;;;;;;;13.07;12.77;;;23.10;53.00;;;;;;4957245;28;20896;-64
2023/12/24 04:04:45;;;;;;;13.53;13.23;;;23.10;53.00;;;;;;4957158;28;20476;-64
2023/12/24 04:07:12;;;;;;;14.13;13.73;;;23.10;53.00;;;;;;4956952;29;20447;-64
2023/12/24 04:09:42;;;;;;;14.77;14.47;;;23.10;53.00;;;;;;4956970;28;20482;-64
2023/12/24 04:12:09;;;;;;;14.13;13.57;;;23.10;53.00;;;;;;4976219;28;20471;-64
2023/12/24 04:14:37;;;;;;;13.90;13.50;;;23.10;53.00;;;;;;4976276;28;20448;-64
2023/12/24 04:17:04;;;;;;;14.93;14.57;;;23.10;53.00;;;;;;4976025;28;20522;-64
2023/12/24 04:19:32;;;;;;;14.20;13.80;;;23.00;52.90;;;;;;4976203;28;21147;-64
2023/12/24 04:21:59;;;;;;;14.70;14.40;;;23.10;52.90;;;;;;4958483;28;20481;-64
2023/12/24 04:24:26;;;;;;;14.10;13.80;;;23.00;52.80;;;;;;4956658;28;20891;-65
2023/12/24 04:26:53;;;;;;;13.70;13.40;;;23.00;52.90;;;;;;4956675;28;20473;-64
2023/12/24 04:29:20;;;;;;;13.77;13.47;;;23.00;52.80;;;;;;4956549;28;20496;-64
2023/12/24 04:31:47;;;;;;;13.23;12.93;;;23.00;52.90;;;;;;4972006;28;20943;-64
2023/12/24 04:34:14;;;;;;;14.60;14.20;;;23.00;52.90;;;;;;4975846;28;20458;-64
2023/12/24 04:36:42;;;;;;;13.40;13.10;;;23.00;52.90;;;;;;4975775;28;20518;-64
2023/12/24 04:39:09;;;;;;;13.00;12.70;;;23.00;52.90;;;;;;4973724;28;20443;-64
2023/12/24 04:41:36;;;;;;;13.73;13.40;;;23.00;52.90;;;;;;4975166;28;20486;-64
2023/12/24 04:44:02;;;;;;;15.37;14.97;;;23.00;52.80;;;;;;4975597;28;20479;-64
2023/12/24 04:46:29;;;;;;;13.20;12.90;;;23.00;52.80;;;;;;4975688;28;20480;-64
2023/12/24 04:48:56;;;;;;;13.90;13.60;;;23.00;52.80;;;;;;4971398;28;20484;-64
2023/12/24 04:51:23;;;;;;;14.20;13.90;;;23.00;52.80;;;;;;4956097;28;20968;-64
2023/12/24 04:53:52;;;;;;;13.40;13.10;;;23.00;52.80;;;;;;4956131;28;20452;-64
2023/12/24 04:56:20;;;;;;;14.37;14.00;;;23.00;53.00;;;;;;4956132;28;20487;-64
2023/12/24 04:58:47;;;;;;;13.20;12.90;;;23.00;52.90;;;;;;4971800;28;20810;-65
2023/12/24 05:01:16;;;;;;;14.00;13.60;;;23.00;53.00;;;;;;4975259;28;20558;-64
2023/12/24 05:03:43;;;;;;;14.63;14.33;;;23.00;53.00;;;;;;4975290;28;20447;-64
2023/12/24 05:06:10;;;;;;;15.50;15.10;;;23.00;53.10;;;;;;4975344;28;20479;-64
2023/12/24 05:08:39;;;;;;;15.33;14.93;;;23.00;53.00;;;;;;4965816;28;20464;-64
2023/12/24 05:11:07;;;;;;;15.03;14.63;;;23.00;53.00;;;;;;4957970;28;20472;-63
2023/12/24 05:13:34;;;;;;;15.20;14.80;;;23.00;53.00;;;;;;4955827;28;20488;-64
2023/12/24 05:16:02;;;;;;;15.27;14.87;;;23.00;53.10;;;;;;4955839;28;20480;-64
2023/12/24 05:18:29;;;;;;;15.83;15.43;;;23.00;53.10;;;;;;4968640;28;20923;-64
2023/12/24 05:20:56;;;;;;;15.60;15.20;;;23.00;53.10;;;;;;4974812;28;20755;-64
2023/12/24 05:23:23;;;;;;;15.30;14.90;;;23.10;53.20;;;;;;4974795;28;20879;-64
2023/12/24 05:25:50;;;;;;;15.53;15.13;;;23.00;53.10;;;;;;4974853;28;20815;-64
2023/12/24 05:28:18;;;;;;;15.30;14.93;;;23.10;53.20;;;;;;4963895;28;20532;-64
2023/12/24 05:30:45;;;;;;;15.40;15.00;;;23.10;53.10;;;;;;4955542;28;20885;-65
2023/12/24 05:33:12;;;;;;;14.80;14.50;;;23.10;53.10;;;;;;4955510;28;20488;-64
2023/12/24 05:35:39;;;;;;;14.60;14.27;;;23.10;53.10;;;;;;4955429;28;20488;-64
2023/12/24 05:38:06;;;;;;;15.50;15.10;;;23.10;53.10;;;;;;4955419;28;20916;-64
2023/12/24 05:40:33;;;;;;;14.70;14.40;;;23.10;53.10;;;;;;4955150;28;20501;-64
2023/12/24 05:43:00;;;;;;;15.43;15.03;;;23.10;53.10;;;;;;4955246;28;20480;-64
2023/12/24 05:45:28;;;;;;;15.63;15.23;;;23.10;53.10;;;;;;4956624;28;21035;-64
2023/12/24 05:47:55;;;;;;;15.87;15.47;;;23.10;53.10;;;;;;4974467;28;20471;-64
2023/12/24 05:50:23;;;;;;;14.50;14.20;;;23.10;53.10;;;;;;4974341;28;20491;-64
2023/12/24 05:52:50;;;;;;;14.90;14.50;;;23.10;53.10;;;;;;4974374;28;20531;-65
2023/12/24 05:55:17;;;;;;;15.77;15.37;;;23.10;53.20;;;;;;4974150;28;20479;-64
2023/12/24 05:57:44;;;;;;;15.70;15.30;;;23.10;53.10;;;;;;4954906;29;20512;-64
2023/12/24 06:00:12;;;;;;;16.07;15.67;;;23.10;53.10;;;;;;4954974;28;20636;-64
2023/12/24 06:02:40;;;;;;;15.20;14.80;;;23.10;53.10;;;;;;4954360;28;20480;-64
2023/12/24 06:05:07;;;;;;;15.47;15.07;;;23.10;53.70;;;;;;4955303;28;20481;-64
2023/12/24 06:07:34;;;;;;;20.13;19.63;;;23.10;53.20;;;;;;4967398;28;20483;-64
2023/12/24 06:10:01;;;;;;;20.03;19.53;;;23.20;53.20;;;;;;4974082;28;20495;-64
2023/12/24 06:12:28;;;;;;;19.20;18.70;;;23.20;53.20;;;;;;4973995;28;20506;-64
2023/12/24 06:14:56;;;;;;;20.17;19.67;;;23.20;53.20;;;;;;4956523;28;20468;-64
2023/12/24 06:17:23;;;;;;;15.40;15.00;;;23.10;53.10;;;;;;4954646;28;20543;-64
2023/12/24 06:19:51;;;;;;;15.00;14.60;;;23.10;53.10;;;;;;4954362;28;20508;-64
2023/12/24 06:22:18;;;;;;;19.03;18.53;;;23.20;53.30;;;;;;4954592;28;20480;-64
2023/12/24 06:24:45;;;;;;;15.97;15.57;;;23.20;53.20;;;;;;4971007;28;20609;-63
2023/12/24 06:27:12;;;;;;;14.30;14.00;;;23.20;53.20;;;;;;4973761;28;20482;-64
2023/12/24 06:29:39;;;;;;;16.37;15.97;;;23.20;53.10;;;;;;4973580;28;20496;-64
2023/12/24 06:32:06;;;;;;;15.53;15.13;;;23.20;53.10;;;;;;4973773;28;20444;-64
2023/12/24 06:34:33;;;;;;;16.70;16.10;;;23.20;53.20;;;;;;4959343;28;20532;-65
2023/12/24 06:37:01;;;;;;;15.37;14.97;;;23.20;53.20;;;;;;4954152;29;20481;-64
2023/12/24 06:39:28;;;;;;;15.10;14.70;;;23.20;53.20;;;;;;4954120;29;20472;-64
2023/12/24 06:41:55;;;;;;;14.63;14.33;;;23.20;53.20;;;;;;4954227;28;20477;-64
2023/12/24 06:44:23;;;;;;;15.10;14.70;;;23.20;53.20;;;;;;4954653;28;20440;-64
2023/12/24 06:46:50;;;;;;;15.87;15.47;;;23.20;53.30;;;;;;4954201;28;20953;-64
2023/12/24 06:49:18;;;;;;;15.47;15.07;;;23.20;53.20;;;;;;4954042;28;20480;-64
2023/12/24 06:51:45;;;;;;;15.37;14.97;;;23.20;53.30;;;;;;4953946;28;20445;-64
2023/12/24 06:54:13;;;;;;;17.07;16.57;;;23.20;53.30;;;;;;4954248;28;20513;-64
2023/12/24 06:56:40;;;;;;;17.67;17.17;;;23.20;53.30;;;;;;4953951;28;20480;-64
2023/12/24 06:59:07;;;;;;;18.10;17.60;;;23.20;53.20;;;;;;4953785;28;20531;-65
2023/12/24 07:01:34;;;;;;;15.10;14.70;;;23.20;53.20;;;;;;4969100;28;20970;-64
2023/12/24 07:04:01;;;;;;;16.13;15.73;;;23.30;53.30;;;;;;4973333;28;20959;-64
2023/12/24 07:06:28;;;;;;;15.97;15.57;;;23.20;53.30;;;;;;4973159;28;20591;-64
2023/12/24 07:08:55;;;;;;;14.80;14.40;;;23.30;53.30;;;;;;4973098;28;20443;-64
2023/12/24 07:11:23;;;;;;;17.13;16.73;;;23.30;53.30;;;;;;4958760;28;20488;-65
2023/12/24 07:13:50;;;;;;;16.10;15.70;;;23.20;53.20;;;;;;4953240;28;21137;-64
2023/12/24 07:16:17;;;;;;;15.90;15.50;;;23.30;53.30;;;;;;4953732;28;20487;-64
2023/12/24 07:18:44;;;;;;;15.00;14.60;;;23.20;53.30;;;;;;4953659;28;20590;-65
2023/12/24 07:21:11;;;;;;;16.47;15.90;;;23.30;53.30;;;;;;5005033;23;20525;-65
2023/12/24 07:23:38;;;;;;;15.07;14.67;;;23.20;53.30;;;;;;4992335;28;20485;-66
2023/12/24 07:26:06;;;;;;;15.60;15.20;;;23.30;53.30;;;;;;4992090;28;20458;-65
2023/12/24 07:28:35;;;;;;;15.90;15.50;;;23.30;53.30;;;;;;4992153;28;20459;-66
2023/12/24 07:31:02;;;;;;;14.83;14.43;;;23.30;53.30;;;;;;4983396;28;20459;-65
2023/12/24 07:33:29;;;;;;;15.50;15.10;;;23.30;53.20;;;;;;4984280;28;20522;-65
2023/12/24 07:35:56;;;;;;;15.70;15.30;;;23.30;53.30;;;;;;4981897;28;20470;-65
2023/12/24 07:38:23;;;;;;;15.93;15.53;;;23.30;53.30;;;;;;4980529;28;20511;-65
2023/12/24 07:40:50;;;;;;;15.13;14.67;;;23.30;53.30;;;;;;4988212;28;20459;-65
2023/12/24 07:43:17;;;;;;;15.43;15.03;;;23.30;53.30;;;;;;4980724;28;20476;-65
2023/12/24 07:45:45;;;;;;;16.53;16.13;;;23.30;53.30;;;;;;4980870;28;21030;-65
2023/12/24 07:48:12;;;;;;;15.20;14.80;;;23.30;53.30;;;;;;4983968;28;20466;-65
2023/12/24 07:50:39;;;;;;;15.20;14.80;;;23.30;53.20;;;;;;4968847;28;20464;-65
2023/12/24 07:53:06;;;;;;;16.53;16.13;;;23.30;53.20;;;;;;4983759;28;20832;-65
2023/12/24 07:55:34;;;;;;;14.43;14.10;;;23.30;53.20;;;;;;4983958;28;20450;-65
2023/12/24 07:58:01;;;;;;;14.50;14.20;;;23.30;53.20;;;;;;4981120;28;20577;-65
2023/12/24 08:00:27;;;;;;;14.83;14.43;;;23.30;53.20;;;;;;4975676;28;20488;-66
2023/12/24 08:02:56;;;;;;;16.53;16.13;;;23.30;53.20;;;;;;4988529;28;20475;-65
2023/12/24 08:05:23;;;;;;;15.90;15.50;;;23.30;53.10;;;;;;4980428;28;20923;-66
2023/12/24 08:07:50;;;;;;;14.87;14.47;;;23.30;53.20;;;;;;4981333;28;20989;-65
2023/12/24 08:10:16;;;;;;;16.73;16.23;;;23.30;53.20;;;;;;4977110;28;20970;-66
2023/12/24 08:12:44;;;;;;;15.70;15.30;;;23.30;53.20;;;;;;4980405;28;20480;-65
2023/12/24 08:15:11;;;;;;;16.70;16.30;;;23.30;53.20;;;;;;4983620;28;20451;-65
2023/12/24 08:17:38;;;;;;;16.00;15.60;;;23.30;53.20;;;;;;4981755;28;20493;-65
2023/12/24 08:20:08;;;;;;;15.67;15.27;;;23.30;53.10;;;;;;4980248;28;20495;-65
2023/12/24 08:22:35;;;;;;;15.00;14.60;;;23.30;53.20;;;;;;4980357;28;20515;-65
2023/12/24 08:25:02;;;;;;;15.93;15.53;;;23.40;53.20;;;;;;4982632;28;20483;-65
2023/12/24 08:27:29;;;;;;;16.87;16.47;;;23.30;53.20;;;;;;4987170;28;20475;-65
2023/12/24 08:29:56;;;;;;;18.40;17.90;;;23.30;53.20;;;;;;4987124;28;20502;-65
2023/12/24 08:32:23;;;;;;;18.07;17.57;;;23.30;53.30;;;;;;4987067;28;20479;-65
2023/12/24 08:34:50;;;;;;;16.53;16.13;;;23.40;53.30;;;;;;4980794;28;20479;-65
2023/12/24 08:37:18;;;;;;;17.67;17.17;;;23.40;53.30;;;;;;4967060;28;20947;-65
2023/12/24 08:39:45;;;;;;;16.00;15.60;;;23.40;53.30;;;;;;4982657;28;20507;-65
2023/12/24 08:42:12;;;;;;;16.70;16.20;;;23.40;53.30;;;;;;4986856;28;20485;-65
2023/12/24 08:44:39;;;;;;;15.97;15.57;;;23.40;53.20;;;;;;4982973;28;20487;-65
2023/12/24 08:47:06;;;;;;;16.83;16.43;;;23.40;53.30;;;;;;4987996;28;20470;-67
2023/12/24 08:49:33;;;;;;;17.70;17.03;;;23.40;54.40;;;;;;4988669;28;20477;-67
2023/12/24 08:52:00;;;;;;;17.73;17.13;;;23.40;56.20;;;;;;4987465;28;20667;-69
2023/12/24 08:54:29;;;;;;;17.60;17.10;;;23.40;55.80;;;;;;4982815;28;20471;-69
2023/12/24 08:56:57;;;;;;;17.40;16.80;;;23.50;56.40;;;;;;4984425;28;20543;-69
2023/12/24 08:59:24;;;;;;;17.23;16.73;;;23.50;56.40;;;;;;4986578;28;20513;-68
2023/12/24 09:01:53;;;;;;;18.10;17.60;;;23.50;56.00;;;;;;4985564;28;20997;-69
2023/12/24 09:04:20;;;;;;;18.00;17.50;;;23.50;55.80;;;;;;4982960;28;20871;-68
2023/12/24 09:06:47;;;;;;;17.77;17.27;;;23.50;55.70;;;;;;4982938;28;20471;-68
2023/12/24 09:09:14;;;;;;;18.20;17.70;;;23.50;55.70;;;;;;4986210;28;20477;-68
2023/12/24 09:11:43;;;;;;;17.90;17.40;;;23.60;55.50;;;;;;4986206;28;20459;-68
2023/12/24 09:14:10;;;;;;;17.80;17.30;;;23.60;55.50;;;;;;4975060;28;20867;-67
2023/12/24 09:16:37;;;;;;;17.43;17.00;;;23.60;55.30;;;;;;4982747;28;20448;-66
2023/12/24 09:19:04;;;;;;;18.37;17.87;;;23.60;55.30;;;;;;4973967;28;21009;-66
2023/12/24 09:21:31;;;;;;;17.50;17.00;;;23.60;55.30;;;;;;4982607;28;20526;-66
2023/12/24 09:24:00;;;;;;;17.60;17.10;;;23.70;55.50;;;;;;4984656;28;20468;-66
2023/12/24 09:26:27;;;;;;;18.23;17.73;;;23.70;55.40;;;;;;4986154;28;20451;-65
2023/12/24 09:28:55;;;;;;;18.93;18.43;;;23.70;55.20;;;;;;4984009;28;20526;-65
2023/12/24 09:31:22;;;;;;;18.60;18.10;;;23.70;55.20;;;;;;4982331;28;20472;-67
2023/12/24 09:33:49;;;;;;;17.73;17.20;;;23.70;55.10;;;;;;4983206;28;20452;-68
2023/12/24 09:36:16;;;;;;;18.17;17.67;;;23.70;55.00;;;;;;4985641;28;20482;-64
2023/12/24 09:38:43;;;;;;;18.53;17.93;;;23.80;55.00;;;;;;4985584;28;20511;-65
2023/12/24 09:41:10;;;;;;;18.00;17.50;;;23.80;55.00;;;;;;4979438;28;20503;-65
2023/12/24 09:43:39;;;;;;;18.60;18.10;;;23.80;54.70;;;;;;4978050;28;20451;-66
2023/12/24 09:46:07;;;;;;;17.30;16.90;;;23.80;54.80;;;;;;4984888;28;20451;-66
2023/12/24 09:48:34;;;;;;;17.10;16.70;;;23.80;54.50;;;;;;4985618;28;20471;-66
2023/12/24 09:51:02;;;;;;;18.50;18.00;;;23.80;54.50;;;;;;4983399;28;20471;-66
2023/12/24 09:53:29;;;;;;;18.77;18.27;;;23.80;54.50;;;;;;4980805;28;20939;-66
2023/12/24 09:55:57;;;;;;;17.07;16.60;;;23.90;54.70;;;;;;4983315;28;20471;-65
2023/12/24 09:58:24;;;;;;;17.70;17.20;;;23.90;54.60;;;;;;4985342;28;20482;-65
2023/12/24 10:00:51;;;;;;;17.57;17.13;;;23.90;54.40;;;;;;4984608;28;20499;-65
2023/12/24 10:03:19;;;;;;;17.50;17.10;;;23.90;54.20;;;;;;4979858;28;20490;-66
2023/12/24 10:06:03;;;;;;;17.23;16.57;;;23.90;53.90;;;;;;4978580;28;20467;-66
2023/12/24 10:08:31;;;;;;;17.07;16.67;;;24.00;53.70;;;;;;4966116;28;20445;-67
2023/12/24 10:10:57;;;;;;;17.00;16.50;;;24.00;53.70;;;;;;4983454;28;20463;-67
2023/12/24 10:13:24;;;;;;;16.97;16.57;;;24.00;53.60;;;;;;4981145;28;20471;-62
2023/12/24 10:16:04;;;;;;;17.77;17.17;;;24.00;53.50;;;;;;4982056;28;20483;-66
2023/12/24 10:18:33;;;;;;;17.00;16.53;;;24.10;54.00;;;;;;4985032;28;20478;-66
2023/12/24 10:21:05;;;;;;;15.90;15.50;;;24.00;53.70;;;;;;4976866;28;20507;-65
2023/12/24 10:23:32;;;;;;;16.73;16.33;;;24.00;53.60;;;;;;4982058;28;20982;-66
2023/12/24 10:26:04;;;;;;;16.77;16.37;;;24.00;53.50;;;;;;4983167;28;20440;-66
2023/12/24 10:28:32;;;;;;;16.93;16.43;;;24.00;53.40;;;;;;4984893;28;20438;-64
2023/12/24 10:31:07;;;;;;;19.57;18.93;;;24.10;53.70;;;;;;4983135;28;20481;-64
2023/12/24 10:33:36;;;;;;;18.10;17.60;;;24.10;54.20;;;;;;4980950;28;20432;-65
2023/12/24 10:36:02;;;;;;;17.93;17.43;;;24.20;54.30;;;;;;4983243;28;20471;-67
2023/12/24 10:38:30;;;;;;;16.10;15.70;;;24.20;54.20;;;;;;4984718;28;20580;-65
2023/12/24 10:40:57;;;;;;;17.83;17.33;;;24.20;54.30;;;;;;4983599;28;20870;-65
2023/12/24 10:43:24;;;;;;;16.90;16.43;;;24.30;54.40;;;;;;4978064;28;20465;-65
2023/12/24 10:45:51;;;;;;;17.13;16.73;;;24.30;54.40;;;;;;4976540;28;20940;-65
2023/12/24 10:48:18;;;;;;;16.73;16.33;;;24.30;54.20;;;;;;4984449;28;20977;-64
2023/12/24 10:50:46;;;;;;;22.83;22.13;;;24.30;54.00;;;;;;4984608;28;20497;-63
2023/12/24 10:53:13;;;;;;;21.40;20.80;;;24.30;53.70;;;;;;4981099;28;20468;-66
2023/12/24 10:55:42;;;;;;;21.17;20.57;;;24.40;54.60;;;;;;4980519;28;20446;-65
2023/12/24 10:58:18;;;;;;;21.13;20.53;;;24.40;54.40;;;;;;4983796;28;20467;-67
2023/12/24 11:00:46;;;;;;;19.30;18.70;;;24.40;54.70;;;;;;4984379;28;20486;-66
2023/12/24 11:03:33;;;;;;;20.27;19.67;;;24.40;54.50;;;;;;4981021;28;20503;-66
2023/12/24 11:06:01;;;;;;;19.83;19.33;;;24.40;54.30;;;;;;4980451;28;20978;-66
2023/12/24 11:08:30;;;;;;;20.30;19.70;;;24.50;54.10;;;;;;4984472;28;20478;-66
2023/12/24 11:10:57;;;;;;;20.00;19.40;;;24.50;54.10;;;;;;4975150;28;20474;-67
2023/12/24 11:13:46;;;;;;;21.07;20.47;;;24.50;54.00;;;;;;4961750;28;20481;-62
2023/12/24 11:16:34;;;;;;;20.13;19.57;;;24.50;53.70;;;;;;4982260;28;20470;-65
2023/12/24 11:19:01;;;;;;;19.93;19.33;;;24.60;53.40;;;;;;4982328;28;20509;-65
2023/12/24 11:21:30;;;;;;;18.13;17.63;;;24.50;53.70;;;;;;4980152;28;20490;-64
2023/12/24 11:24:21;;;;;;;18.50;18.00;;;24.50;53.70;;;;;;4983098;28;20494;-66
2023/12/24 11:26:50;;;;;;;17.90;17.40;;;24.50;53.30;;;;;;4980797;28;20479;-65
2023/12/24 11:29:47;;;;;;;20.10;19.53;;;24.50;53.50;;;;;;4983929;28;20443;-64
2023/12/24 11:32:36;;;;;;;19.13;18.63;;;24.50;52.80;;;;;;4975874;28;20436;-64
2023/12/24 11:35:03;;;;;;;19.80;19.30;;;24.50;52.70;;;;;;4982185;28;20439;-64
2023/12/24 11:37:35;;;;;;;18.93;18.40;;;24.50;52.80;;;;;;4978113;28;20797;-64
2023/12/24 11:40:03;;;;;;;18.57;18.07;;;24.50;52.60;;;;;;4983655;28;20855;-64
2023/12/24 11:42:42;;;;;;;19.40;18.90;;;24.50;52.50;;;;;;4984020;28;20441;-64
2023/12/24 11:45:09;;;;;;;19.17;18.67;;;24.50;52.40;;;;;;4973559;28;20471;-65
2023/12/24 11:47:37;;;;;;;18.27;17.67;;;24.50;52.50;;;;;;4980462;28;20471;-64
2023/12/24 11:50:06;;;;;;;18.00;17.50;;;24.50;52.50;;;;;;4982130;28;20465;-63
2023/12/24 11:52:34;;;;;;;18.17;17.67;;;24.50;52.70;;;;;;4978612;28;20959;-65
2023/12/24 11:55:02;;;;;;;19.17;18.57;;;24.60;53.90;;;;;;4981954;28;20443;-67
2023/12/24 11:57:29;;;;;;;19.23;18.73;;;24.60;53.80;;;;;;4983968;28;20856;-67
2023/12/24 11:59:56;;;;;;;19.83;19.33;;;24.70;54.00;;;;;;4983100;28;21054;-68
2023/12/24 12:02:23;;;;;;;21.07;20.47;;;24.70;53.70;;;;;;4984342;28;20471;-67
2023/12/24 12:04:50;;;;;;;19.80;19.30;;;24.70;53.70;;;;;;4984106;28;20443;-67
2023/12/24 12:07:17;;;;;;;20.87;20.07;;;24.80;53.90;;;;;;4987316;28;20471;-66
2023/12/24 12:09:45;;;;;;;20.10;19.60;;;24.80;54.30;;;;;;4987269;28;20462;-66
2023/12/24 12:12:12;;;;;;;19.10;18.60;;;24.80;54.30;;;;;;4984661;28;20440;-67
2023/12/24 12:14:39;;;;;;;19.70;19.20;;;24.90;54.20;;;;;;4984113;28;20970;-66
2023/12/24 12:17:06;;;;;;;18.43;17.93;;;24.90;54.00;;;;;;4985670;28;20866;-66
2023/12/24 12:19:32;;;;;;;19.03;18.53;;;24.90;53.90;;;;;;4987032;28;20525;-70
2023/12/24 12:22:01;;;;;;;19.00;18.50;;;24.90;53.60;;;;;;4986115;28;20846;-65
2023/12/24 12:24:27;;;;;;;19.33;18.83;;;25.00;54.60;;;;;;4983738;28;20440;-65
2023/12/24 12:26:56;;;;;;;20.20;19.60;;;25.00;52.90;;;;;;4983966;28;20463;-66
2023/12/24 12:29:23;;;;;;;19.67;19.17;;;25.00;53.40;;;;;;4987067;28;20434;-65
2023/12/24 12:31:55;;;;;;;19.57;18.97;;;25.00;53.60;;;;;;4987106;28;20541;-65